sensor_id;sensor_type;location;lat;lon;timestamp;pressure;altitude;pressure_sealevel;temperature;humidity
75745;BME280;74462;51.366;-0.222;2024-02-04T00:01:01;102434.09;;;11.86;83.60
75745;BME280;74462;51.366;-0.222;2024-02-04T00:02:05;102432.64;;;11.84;83.73
75745;BME280;74462;51.366;-0.222;2024-02-04T00:03:10;102428.96;;;11.82;84.03
75745;BME280;74462;51.366;-0.222;2024-02-04T00:04:15;102428.24;;;11.86;83.56
75745;BME280;74462;51.366;-0.222;2024-02-04T00:05:19;102432.30;;;11.86;83.59
75745;BME280;74462;51.366;-0.222;2024-02-04T00:06:24;102429.86;;;11.82;83.72
75745;BME280;74462;51.366;-0.222;2024-02-04T00:07:29;102428.45;;;11.82;83.78
75745;BME280;74462;51.366;-0.222;2024-02-04T00:08:33;102426.95;;;11.84;83.73
75745;BME280;74462;51.366;-0.222;2024-02-04T00:09:38;102430.33;;;11.80;83.78
75745;BME280;74462;51.366;-0.222;2024-02-04T00:10:42;102428.84;;;11.81;83.81
75745;BME280;74462;51.366;-0.222;2024-02-04T00:11:47;102427.42;;;11.81;83.80
75745;BME280;74462;51.366;-0.222;2024-02-04T00:12:51;102428.50;;;11.78;83.87
75745;BME280;74462;51.366;-0.222;2024-02-04T00:13:56;102426.71;;;11.75;84.07
75745;BME280;74462;51.366;-0.222;2024-02-04T00:15:00;102428.69;;;11.77;83.89
75745;BME280;74462;51.366;-0.222;2024-02-04T00:16:07;102429.11;;;11.80;83.89
75745;BME280;74462;51.366;-0.222;2024-02-04T00:17:12;102429.99;;;11.77;83.79
75745;BME280;74462;51.366;-0.222;2024-02-04T00:18:18;102428.29;;;11.78;83.84
75745;BME280;74462;51.366;-0.222;2024-02-04T00:19:22;102429.80;;;11.77;83.88
75745;BME280;74462;51.366;-0.222;2024-02-04T00:20:27;102423.63;;;11.79;83.84
75745;BME280;74462;51.366;-0.222;2024-02-04T00:21:32;102421.66;;;11.79;83.90
75745;BME280;74462;51.366;-0.222;2024-02-04T00:22:37;102423.75;;;11.77;83.67
75745;BME280;74462;51.366;-0.222;2024-02-04T00:23:41;102414.59;;;11.72;83.86
75745;BME280;74462;51.366;-0.222;2024-02-04T00:24:45;102417.16;;;11.70;83.76
75745;BME280;74462;51.366;-0.222;2024-02-04T00:25:50;102419.06;;;11.68;84.06
75745;BME280;74462;51.366;-0.222;2024-02-04T00:26:55;102414.44;;;11.72;84.10
75745;BME280;74462;51.366;-0.222;2024-02-04T00:27:59;102411.91;;;11.72;83.82
75745;BME280;74462;51.366;-0.222;2024-02-04T00:29:03;102410.75;;;11.71;83.67
75745;BME280;74462;51.366;-0.222;2024-02-04T00:30:09;102405.50;;;11.69;83.96
75745;BME280;74462;51.366;-0.222;2024-02-04T00:31:14;102406.46;;;11.71;83.73
75745;BME280;74462;51.366;-0.222;2024-02-04T00:32:18;102406.23;;;11.69;83.79
75745;BME280;74462;51.366;-0.222;2024-02-04T00:33:23;102411.10;;;11.67;83.88
75745;BME280;74462;51.366;-0.222;2024-02-04T00:34:28;102411.93;;;11.68;83.81
75745;BME280;74462;51.366;-0.222;2024-02-04T00:35:32;102414.77;;;11.69;83.61
75745;BME280;74462;51.366;-0.222;2024-02-04T00:36:37;102414.08;;;11.65;83.95
75745;BME280;74462;51.366;-0.222;2024-02-04T00:37:41;102417.30;;;11.65;83.99
75745;BME280;74462;51.366;-0.222;2024-02-04T00:38:46;102417.10;;;11.59;84.08
75745;BME280;74462;51.366;-0.222;2024-02-04T00:39:50;102421.27;;;11.61;84.13
75745;BME280;74462;51.366;-0.222;2024-02-04T00:40:54;102425.23;;;11.63;84.17
75745;BME280;74462;51.366;-0.222;2024-02-04T00:42:00;102415.02;;;11.61;84.23
75745;BME280;74462;51.366;-0.222;2024-02-04T00:43:04;102416.04;;;11.65;83.99
75745;BME280;74462;51.366;-0.222;2024-02-04T00:44:09;102418.42;;;11.61;84.05
75745;BME280;74462;51.366;-0.222;2024-02-04T00:45:14;102419.31;;;11.61;84.34
75745;BME280;74462;51.366;-0.222;2024-02-04T00:46:19;102423.54;;;11.62;84.31
75745;BME280;74462;51.366;-0.222;2024-02-04T00:47:24;102429.02;;;11.62;84.33
75745;BME280;74462;51.366;-0.222;2024-02-04T00:48:29;102433.56;;;11.61;84.30
75745;BME280;74462;51.366;-0.222;2024-02-04T00:49:33;102430.45;;;11.62;84.29
75745;BME280;74462;51.366;-0.222;2024-02-04T00:50:38;102430.56;;;11.63;84.41
75745;BME280;74462;51.366;-0.222;2024-02-04T00:51:42;102432.48;;;11.61;84.34
75745;BME280;74462;51.366;-0.222;2024-02-04T00:52:47;102431.09;;;11.63;84.17
75745;BME280;74462;51.366;-0.222;2024-02-04T00:53:51;102430.23;;;11.66;84.32
75745;BME280;74462;51.366;-0.222;2024-02-04T00:54:56;102432.55;;;11.66;84.39
75745;BME280;74462;51.366;-0.222;2024-02-04T00:56:00;102427.16;;;11.64;84.38
75745;BME280;74462;51.366;-0.222;2024-02-04T00:57:05;102428.59;;;11.64;84.47
75745;BME280;74462;51.366;-0.222;2024-02-04T00:58:10;102428.73;;;11.61;84.71
75745;BME280;74462;51.366;-0.222;2024-02-04T00:59:14;102433.11;;;11.59;84.77
75745;BME280;74462;51.366;-0.222;2024-02-04T01:00:19;102430.65;;;11.58;84.92
75745;BME280;74462;51.366;-0.222;2024-02-04T01:01:24;102428.63;;;11.60;84.90
75745;BME280;74462;51.366;-0.222;2024-02-04T01:02:28;102424.16;;;11.60;84.96
75745;BME280;74462;51.366;-0.222;2024-02-04T01:03:33;102429.77;;;11.58;84.74
75745;BME280;74462;51.366;-0.222;2024-02-04T01:04:37;102426.09;;;11.57;85.13
75745;BME280;74462;51.366;-0.222;2024-02-04T01:05:42;102422.29;;;11.58;85.03
75745;BME280;74462;51.366;-0.222;2024-02-04T01:06:46;102420.77;;;11.57;84.94
75745;BME280;74462;51.366;-0.222;2024-02-04T01:07:51;102418.53;;;11.59;84.79
75745;BME280;74462;51.366;-0.222;2024-02-04T01:08:55;102417.58;;;11.60;84.83
75745;BME280;74462;51.366;-0.222;2024-02-04T01:10:00;102417.42;;;11.60;84.75
75745;BME280;74462;51.366;-0.222;2024-02-04T01:11:05;102412.95;;;11.57;84.72
75745;BME280;74462;51.366;-0.222;2024-02-04T01:12:10;102416.33;;;11.57;84.74
75745;BME280;74462;51.366;-0.222;2024-02-04T01:13:14;102413.95;;;11.58;84.93
75745;BME280;74462;51.366;-0.222;2024-02-04T01:14:19;102414.91;;;11.60;84.82
75745;BME280;74462;51.366;-0.222;2024-02-04T01:15:23;102417.54;;;11.58;84.71
75745;BME280;74462;51.366;-0.222;2024-02-04T01:16:28;102411.54;;;11.56;85.15
75745;BME280;74462;51.366;-0.222;2024-02-04T01:17:33;102413.43;;;11.57;84.94
75745;BME280;74462;51.366;-0.222;2024-02-04T01:18:38;102405.80;;;11.54;84.98
75745;BME280;74462;51.366;-0.222;2024-02-04T01:19:42;102408.68;;;11.57;84.99
75745;BME280;74462;51.366;-0.222;2024-02-04T01:20:47;102408.95;;;11.55;85.01
75745;BME280;74462;51.366;-0.222;2024-02-04T01:21:51;102409.37;;;11.57;85.01
75745;BME280;74462;51.366;-0.222;2024-02-04T01:22:56;102405.84;;;11.56;84.99
75745;BME280;74462;51.366;-0.222;2024-02-04T01:24:00;102408.30;;;11.54;85.00
75745;BME280;74462;51.366;-0.222;2024-02-04T01:25:07;102410.47;;;11.50;85.01
75745;BME280;74462;51.366;-0.222;2024-02-04T01:26:11;102411.49;;;11.54;85.19
75745;BME280;74462;51.366;-0.222;2024-02-04T01:27:16;102409.30;;;11.49;85.05
75745;BME280;74462;51.366;-0.222;2024-02-04T01:28:20;102409.26;;;11.53;85.15
75745;BME280;74462;51.366;-0.222;2024-02-04T01:29:25;102415.22;;;11.55;84.87
75745;BME280;74462;51.366;-0.222;2024-02-04T01:30:29;102414.51;;;11.54;84.95
75745;BME280;74462;51.366;-0.222;2024-02-04T01:31:34;102417.88;;;11.55;85.08
75745;BME280;74462;51.366;-0.222;2024-02-04T01:32:39;102420.80;;;11.54;85.00
75745;BME280;74462;51.366;-0.222;2024-02-04T01:33:43;102419.41;;;11.53;85.03
75745;BME280;74462;51.366;-0.222;2024-02-04T01:34:48;102422.98;;;11.52;85.15
75745;BME280;74462;51.366;-0.222;2024-02-04T01:35:52;102420.38;;;11.54;85.18
75745;BME280;74462;51.366;-0.222;2024-02-04T01:36:57;102422.17;;;11.57;85.00
75745;BME280;74462;51.366;-0.222;2024-02-04T01:38:01;102428.09;;;11.56;84.87
75745;BME280;74462;51.366;-0.222;2024-02-04T01:39:06;102428.65;;;11.56;84.81
75745;BME280;74462;51.366;-0.222;2024-02-04T01:40:11;102424.79;;;11.55;84.97
75745;BME280;74462;51.366;-0.222;2024-02-04T01:41:17;102426.23;;;11.52;85.05
75745;BME280;74462;51.366;-0.222;2024-02-04T01:42:21;102421.77;;;11.52;84.98
75745;BME280;74462;51.366;-0.222;2024-02-04T01:43:26;102419.18;;;11.51;85.03
75745;BME280;74462;51.366;-0.222;2024-02-04T01:44:30;102416.71;;;11.47;85.14
75745;BME280;74462;51.366;-0.222;2024-02-04T01:45:35;102412.02;;;11.45;85.41
75745;BME280;74462;51.366;-0.222;2024-02-04T01:46:39;102409.69;;;11.49;85.14
75745;BME280;74462;51.366;-0.222;2024-02-04T01:47:44;102406.79;;;11.49;85.08
75745;BME280;74462;51.366;-0.222;2024-02-04T01:48:49;102406.95;;;11.53;84.99
75745;BME280;74462;51.366;-0.222;2024-02-04T01:49:54;102403.64;;;11.49;85.05
75745;BME280;74462;51.366;-0.222;2024-02-04T01:51:00;102400.15;;;11.50;85.14
75745;BME280;74462;51.366;-0.222;2024-02-04T01:52:06;102402.35;;;11.46;85.12
75745;BME280;74462;51.366;-0.222;2024-02-04T01:53:12;102403.86;;;11.48;85.11
75745;BME280;74462;51.366;-0.222;2024-02-04T01:54:17;102401.63;;;11.47;85.19
75745;BME280;74462;51.366;-0.222;2024-02-04T01:55:21;102399.02;;;11.49;85.26
75745;BME280;74462;51.366;-0.222;2024-02-04T01:56:26;102398.75;;;11.47;85.17
75745;BME280;74462;51.366;-0.222;2024-02-04T01:57:31;102403.43;;;11.49;85.10
75745;BME280;74462;51.366;-0.222;2024-02-04T01:58:35;102403.20;;;11.50;85.14
75745;BME280;74462;51.366;-0.222;2024-02-04T01:59:40;102403.94;;;11.50;85.14
75745;BME280;74462;51.366;-0.222;2024-02-04T02:00:46;102398.54;;;11.48;85.10
75745;BME280;74462;51.366;-0.222;2024-02-04T02:01:52;102397.66;;;11.45;85.27
75745;BME280;74462;51.366;-0.222;2024-02-04T02:02:58;102397.39;;;11.46;85.30
75745;BME280;74462;51.366;-0.222;2024-02-04T02:04:03;102396.21;;;11.45;85.25
75745;BME280;74462;51.366;-0.222;2024-02-04T02:05:09;102388.23;;;11.45;85.34
75745;BME280;74462;51.366;-0.222;2024-02-04T02:06:14;102389.38;;;11.46;85.22
75745;BME280;74462;51.366;-0.222;2024-02-04T02:07:18;102390.11;;;11.43;85.48
75745;BME280;74462;51.366;-0.222;2024-02-04T02:08:24;102397.25;;;11.42;85.61
75745;BME280;74462;51.366;-0.222;2024-02-04T02:09:29;102392.82;;;11.45;85.50
75745;BME280;74462;51.366;-0.222;2024-02-04T02:10:34;102396.65;;;11.41;85.41
75745;BME280;74462;51.366;-0.222;2024-02-04T02:11:40;102392.53;;;11.38;85.57
75745;BME280;74462;51.366;-0.222;2024-02-04T02:12:50;102401.34;;;11.39;85.34
75745;BME280;74462;51.366;-0.222;2024-02-04T02:14:00;102394.98;;;11.39;85.78
75745;BME280;74462;51.366;-0.222;2024-02-04T02:15:15;102396.89;;;11.39;85.66
75745;BME280;74462;51.366;-0.222;2024-02-04T02:16:24;102400.27;;;11.40;85.60
75745;BME280;74462;51.366;-0.222;2024-02-04T02:17:36;102394.61;;;11.38;85.68
75745;BME280;74462;51.366;-0.222;2024-02-04T02:18:45;102391.41;;;11.42;85.27
75745;BME280;74462;51.366;-0.222;2024-02-04T02:19:57;102389.79;;;11.39;85.39
75745;BME280;74462;51.366;-0.222;2024-02-04T02:21:19;102389.47;;;11.38;85.55
75745;BME280;74462;51.366;-0.222;2024-02-04T02:22:30;102393.91;;;11.38;85.46
75745;BME280;74462;51.366;-0.222;2024-02-04T02:23:43;102394.02;;;11.37;85.42
75745;BME280;74462;51.366;-0.222;2024-02-04T02:24:52;102401.27;;;11.37;85.34
75745;BME280;74462;51.366;-0.222;2024-02-04T02:25:59;102390.47;;;11.36;85.46
75745;BME280;74462;51.366;-0.222;2024-02-04T02:27:04;102388.60;;;11.34;85.58
75745;BME280;74462;51.366;-0.222;2024-02-04T02:28:09;102381.70;;;11.37;85.53
75745;BME280;74462;51.366;-0.222;2024-02-04T02:29:14;102385.27;;;11.37;85.32
75745;BME280;74462;51.366;-0.222;2024-02-04T02:30:19;102387.89;;;11.34;85.41
75745;BME280;74462;51.366;-0.222;2024-02-04T02:31:24;102392.34;;;11.35;85.49
75745;BME280;74462;51.366;-0.222;2024-02-04T02:32:29;102397.39;;;11.30;85.68
75745;BME280;74462;51.366;-0.222;2024-02-04T02:33:33;102395.21;;;11.31;85.69
75745;BME280;74462;51.366;-0.222;2024-02-04T02:34:38;102397.94;;;11.30;85.84
75745;BME280;74462;51.366;-0.222;2024-02-04T02:35:45;102406.67;;;11.29;85.77
75745;BME280;74462;51.366;-0.222;2024-02-04T02:36:55;102406.18;;;11.29;85.88
75745;BME280;74462;51.366;-0.222;2024-02-04T02:38:08;102405.78;;;11.32;85.55
75745;BME280;74462;51.366;-0.222;2024-02-04T02:39:20;102410.66;;;11.34;85.42
75745;BME280;74462;51.366;-0.222;2024-02-04T02:40:29;102412.50;;;11.30;85.67
75745;BME280;74462;51.366;-0.222;2024-02-04T02:41:35;102412.45;;;11.31;85.68
75745;BME280;74462;51.366;-0.222;2024-02-04T02:42:43;102416.45;;;11.30;85.53
75745;BME280;74462;51.366;-0.222;2024-02-04T02:43:51;102415.39;;;11.30;85.56
75745;BME280;74462;51.366;-0.222;2024-02-04T02:44:57;102412.07;;;11.28;85.65
75745;BME280;74462;51.366;-0.222;2024-02-04T02:46:02;102407.24;;;11.32;85.34
75745;BME280;74462;51.366;-0.222;2024-02-04T02:47:07;102415.24;;;11.32;85.42
75745;BME280;74462;51.366;-0.222;2024-02-04T02:48:14;102420.98;;;11.31;85.26
75745;BME280;74462;51.366;-0.222;2024-02-04T02:49:19;102414.42;;;11.31;85.44
75745;BME280;74462;51.366;-0.222;2024-02-04T02:50:25;102417.23;;;11.31;85.39
75745;BME280;74462;51.366;-0.222;2024-02-04T02:51:29;102423.70;;;11.30;85.15
75745;BME280;74462;51.366;-0.222;2024-02-04T02:52:36;102424.44;;;11.33;85.11
75745;BME280;74462;51.366;-0.222;2024-02-04T02:53:40;102422.12;;;11.30;85.16
75745;BME280;74462;51.366;-0.222;2024-02-04T02:54:45;102415.10;;;11.28;85.15
75745;BME280;74462;51.366;-0.222;2024-02-04T02:55:49;102408.10;;;11.29;85.11
75745;BME280;74462;51.366;-0.222;2024-02-04T02:56:54;102405.73;;;11.24;85.21
75745;BME280;74462;51.366;-0.222;2024-02-04T02:57:58;102396.03;;;11.23;85.45
75745;BME280;74462;51.366;-0.222;2024-02-04T02:59:03;102387.14;;;11.23;85.48
75745;BME280;74462;51.366;-0.222;2024-02-04T03:00:09;102376.45;;;11.20;85.64
75745;BME280;74462;51.366;-0.222;2024-02-04T03:01:14;102369.11;;;11.21;85.55
75745;BME280;74462;51.366;-0.222;2024-02-04T03:02:18;102361.86;;;11.20;85.65
75745;BME280;74462;51.366;-0.222;2024-02-04T03:03:23;102357.13;;;11.19;85.65
75745;BME280;74462;51.366;-0.222;2024-02-04T03:04:27;102356.08;;;11.16;86.02
75745;BME280;74462;51.366;-0.222;2024-02-04T03:05:32;102353.21;;;11.19;85.93
75745;BME280;74462;51.366;-0.222;2024-02-04T03:06:37;102349.01;;;11.18;85.87
75745;BME280;74462;51.366;-0.222;2024-02-04T03:07:42;102352.60;;;11.17;86.03
75745;BME280;74462;51.366;-0.222;2024-02-04T03:08:46;102361.50;;;11.20;85.85
75745;BME280;74462;51.366;-0.222;2024-02-04T03:09:52;102362.21;;;11.20;85.86
75745;BME280;74462;51.366;-0.222;2024-02-04T03:10:56;102359.45;;;11.19;85.93
75745;BME280;74462;51.366;-0.222;2024-02-04T03:12:01;102357.08;;;11.17;86.07
75745;BME280;74462;51.366;-0.222;2024-02-04T03:13:06;102354.42;;;11.20;85.99
75745;BME280;74462;51.366;-0.222;2024-02-04T03:14:10;102357.68;;;11.19;85.98
75745;BME280;74462;51.366;-0.222;2024-02-04T03:15:15;102359.63;;;11.19;86.04
75745;BME280;74462;51.366;-0.222;2024-02-04T03:16:19;102361.10;;;11.21;85.92
75745;BME280;74462;51.366;-0.222;2024-02-04T03:17:24;102357.81;;;11.23;85.80
75745;BME280;74462;51.366;-0.222;2024-02-04T03:18:28;102361.85;;;11.24;85.79
75745;BME280;74462;51.366;-0.222;2024-02-04T03:19:32;102367.52;;;11.24;85.73
75745;BME280;74462;51.366;-0.222;2024-02-04T03:20:37;102369.54;;;11.26;85.55
75745;BME280;74462;51.366;-0.222;2024-02-04T03:21:42;102374.21;;;11.25;85.61
75745;BME280;74462;51.366;-0.222;2024-02-04T03:22:47;102373.57;;;11.24;85.58
75745;BME280;74462;51.366;-0.222;2024-02-04T03:23:51;102374.64;;;11.27;85.57
75745;BME280;74462;51.366;-0.222;2024-02-04T03:24:56;102378.83;;;11.31;85.54
75745;BME280;74462;51.366;-0.222;2024-02-04T03:26:00;102376.92;;;11.30;85.35
75745;BME280;74462;51.366;-0.222;2024-02-04T03:27:05;102380.86;;;11.33;85.17
75745;BME280;74462;51.366;-0.222;2024-02-04T03:28:09;102383.98;;;11.34;85.14
75745;BME280;74462;51.366;-0.222;2024-02-04T03:29:14;102380.51;;;11.30;85.29
75745;BME280;74462;51.366;-0.222;2024-02-04T03:30:19;102373.72;;;11.33;85.22
75745;BME280;74462;51.366;-0.222;2024-02-04T03:31:23;102376.11;;;11.32;85.35
75745;BME280;74462;51.366;-0.222;2024-02-04T03:32:28;102376.13;;;11.35;85.18
75745;BME280;74462;51.366;-0.222;2024-02-04T03:33:36;102378.75;;;11.36;85.24
75745;BME280;74462;51.366;-0.222;2024-02-04T03:34:42;102379.87;;;11.35;85.21
75745;BME280;74462;51.366;-0.222;2024-02-04T03:35:47;102386.27;;;11.32;85.31
75745;BME280;74462;51.366;-0.222;2024-02-04T03:36:51;102381.61;;;11.36;85.24
75745;BME280;74462;51.366;-0.222;2024-02-04T03:37:56;102379.54;;;11.34;85.32
75745;BME280;74462;51.366;-0.222;2024-02-04T03:39:00;102380.93;;;11.38;85.21
75745;BME280;74462;51.366;-0.222;2024-02-04T03:40:06;102378.38;;;11.43;84.96
75745;BME280;74462;51.366;-0.222;2024-02-04T03:41:11;102376.85;;;11.42;85.10
75745;BME280;74462;51.366;-0.222;2024-02-04T03:42:16;102367.52;;;11.43;85.13
75745;BME280;74462;51.366;-0.222;2024-02-04T03:43:21;102367.98;;;11.44;84.81
75745;BME280;74462;51.366;-0.222;2024-02-04T03:44:25;102369.02;;;11.44;84.71
75745;BME280;74462;51.366;-0.222;2024-02-04T03:45:30;102375.53;;;11.43;84.73
75745;BME280;74462;51.366;-0.222;2024-02-04T03:46:34;102371.86;;;11.45;84.74
75745;BME280;74462;51.366;-0.222;2024-02-04T03:47:39;102364.80;;;11.44;84.56
75745;BME280;74462;51.366;-0.222;2024-02-04T03:48:44;102368.98;;;11.45;84.51
75745;BME280;74462;51.366;-0.222;2024-02-04T03:49:49;102367.87;;;11.46;84.64
75745;BME280;74462;51.366;-0.222;2024-02-04T03:50:53;102369.04;;;11.47;84.27
75745;BME280;74462;51.366;-0.222;2024-02-04T03:51:58;102367.30;;;11.46;84.40
75745;BME280;74462;51.366;-0.222;2024-02-04T03:53:03;102367.21;;;11.48;84.22
75745;BME280;74462;51.366;-0.222;2024-02-04T03:54:07;102368.55;;;11.49;84.21
75745;BME280;74462;51.366;-0.222;2024-02-04T03:55:12;102367.77;;;11.48;84.11
75745;BME280;74462;51.366;-0.222;2024-02-04T03:56:16;102373.31;;;11.50;84.01
75745;BME280;74462;51.366;-0.222;2024-02-04T03:57:21;102372.23;;;11.47;84.17
75745;BME280;74462;51.366;-0.222;2024-02-04T03:58:26;102372.41;;;11.53;84.17
75745;BME280;74462;51.366;-0.222;2024-02-04T03:59:33;102371.66;;;11.54;84.02
75745;BME280;74462;51.366;-0.222;2024-02-04T04:00:37;102369.84;;;11.54;83.97
75745;BME280;74462;51.366;-0.222;2024-02-04T04:01:46;102373.73;;;11.55;83.88
75745;BME280;74462;51.366;-0.222;2024-02-04T04:02:50;102366.48;;;11.54;83.93
75745;BME280;74462;51.366;-0.222;2024-02-04T04:03:55;102371.47;;;11.54;83.99
75745;BME280;74462;51.366;-0.222;2024-02-04T04:04:59;102368.61;;;11.51;84.10
75745;BME280;74462;51.366;-0.222;2024-02-04T04:06:04;102370.31;;;11.53;84.01
75745;BME280;74462;51.366;-0.222;2024-02-04T04:07:09;102369.45;;;11.52;84.16
75745;BME280;74462;51.366;-0.222;2024-02-04T04:08:14;102363.98;;;11.51;84.14
75745;BME280;74462;51.366;-0.222;2024-02-04T04:09:19;102369.80;;;11.55;83.87
75745;BME280;74462;51.366;-0.222;2024-02-04T04:10:23;102363.17;;;11.56;83.95
75745;BME280;74462;51.366;-0.222;2024-02-04T04:11:28;102362.39;;;11.61;83.77
75745;BME280;74462;51.366;-0.222;2024-02-04T04:12:32;102362.37;;;11.61;83.78
75745;BME280;74462;51.366;-0.222;2024-02-04T04:13:37;102362.41;;;11.60;83.61
75745;BME280;74462;51.366;-0.222;2024-02-04T04:14:42;102355.69;;;11.60;83.79
75745;BME280;74462;51.366;-0.222;2024-02-04T04:15:46;102355.30;;;11.57;84.00
75745;BME280;74462;51.366;-0.222;2024-02-04T04:16:51;102351.70;;;11.61;83.83
75745;BME280;74462;51.366;-0.222;2024-02-04T04:17:55;102350.58;;;11.62;83.73
75745;BME280;74462;51.366;-0.222;2024-02-04T04:19:00;102347.60;;;11.61;83.72
75745;BME280;74462;51.366;-0.222;2024-02-04T04:20:08;102345.62;;;11.62;83.93
75745;BME280;74462;51.366;-0.222;2024-02-04T04:21:13;102341.73;;;11.61;83.90
75745;BME280;74462;51.366;-0.222;2024-02-04T04:22:17;102343.63;;;11.65;83.86
75745;BME280;74462;51.366;-0.222;2024-02-04T04:23:22;102346.33;;;11.64;83.72
75745;BME280;74462;51.366;-0.222;2024-02-04T04:24:26;102346.79;;;11.66;83.74
75745;BME280;74462;51.366;-0.222;2024-02-04T04:25:31;102345.06;;;11.65;83.71
75745;BME280;74462;51.366;-0.222;2024-02-04T04:26:36;102341.86;;;11.58;83.89
75745;BME280;74462;51.366;-0.222;2024-02-04T04:27:41;102353.28;;;11.55;84.19
75745;BME280;74462;51.366;-0.222;2024-02-04T04:28:45;102347.96;;;11.55;84.16
75745;BME280;74462;51.366;-0.222;2024-02-04T04:29:49;102349.73;;;11.58;84.03
75745;BME280;74462;51.366;-0.222;2024-02-04T04:30:54;102348.02;;;11.57;84.02
75745;BME280;74462;51.366;-0.222;2024-02-04T04:31:59;102349.27;;;11.56;84.00
75745;BME280;74462;51.366;-0.222;2024-02-04T04:33:04;102349.36;;;11.55;84.05
75745;BME280;74462;51.366;-0.222;2024-02-04T04:34:09;102350.17;;;11.59;83.77
75745;BME280;74462;51.366;-0.222;2024-02-04T04:35:14;102353.98;;;11.58;83.84
75745;BME280;74462;51.366;-0.222;2024-02-04T04:36:18;102354.17;;;11.61;83.92
75745;BME280;74462;51.366;-0.222;2024-02-04T04:37:23;102352.56;;;11.64;83.69
75745;BME280;74462;51.366;-0.222;2024-02-04T04:38:27;102351.92;;;11.63;83.77
75745;BME280;74462;51.366;-0.222;2024-02-04T04:39:32;102349.27;;;11.66;83.72
75745;BME280;74462;51.366;-0.222;2024-02-04T04:40:36;102347.85;;;11.66;83.73
75745;BME280;74462;51.366;-0.222;2024-02-04T04:41:41;102342.61;;;11.67;83.34
75745;BME280;74462;51.366;-0.222;2024-02-04T04:42:46;102338.65;;;11.68;83.53
75745;BME280;74462;51.366;-0.222;2024-02-04T04:43:50;102337.52;;;11.63;83.41
75745;BME280;74462;51.366;-0.222;2024-02-04T04:44:55;102336.60;;;11.63;83.56
75745;BME280;74462;51.366;-0.222;2024-02-04T04:46:00;102331.04;;;11.64;83.50
75745;BME280;74462;51.366;-0.222;2024-02-04T04:47:05;102334.13;;;11.66;83.45
75745;BME280;74462;51.366;-0.222;2024-02-04T04:48:10;102328.04;;;11.67;83.18
75745;BME280;74462;51.366;-0.222;2024-02-04T04:49:14;102323.77;;;11.70;83.03
75745;BME280;74462;51.366;-0.222;2024-02-04T04:50:19;102320.74;;;11.70;83.22
75745;BME280;74462;51.366;-0.222;2024-02-04T04:51:23;102315.53;;;11.71;83.13
75745;BME280;74462;51.366;-0.222;2024-02-04T04:52:28;102312.80;;;11.72;83.02
75745;BME280;74462;51.366;-0.222;2024-02-04T04:53:32;102312.27;;;11.75;82.83
75745;BME280;74462;51.366;-0.222;2024-02-04T04:54:37;102313.04;;;11.77;82.66
75745;BME280;74462;51.366;-0.222;2024-02-04T04:55:41;102311.03;;;11.69;82.82
75745;BME280;74462;51.366;-0.222;2024-02-04T04:56:46;102307.40;;;11.67;83.19
75745;BME280;74462;51.366;-0.222;2024-02-04T04:57:50;102312.44;;;11.66;83.04
75745;BME280;74462;51.366;-0.222;2024-02-04T04:58:55;102312.67;;;11.65;82.91
75745;BME280;74462;51.366;-0.222;2024-02-04T05:00:00;102317.71;;;11.67;82.85
75745;BME280;74462;51.366;-0.222;2024-02-04T05:01:09;102318.32;;;11.65;83.08
75745;BME280;74462;51.366;-0.222;2024-02-04T05:02:14;102316.38;;;11.65;82.79
75745;BME280;74462;51.366;-0.222;2024-02-04T05:03:18;102316.95;;;11.62;82.83
75745;BME280;74462;51.366;-0.222;2024-02-04T05:04:23;102310.84;;;11.60;83.14
75745;BME280;74462;51.366;-0.222;2024-02-04T05:05:28;102315.30;;;11.62;83.03
75745;BME280;74462;51.366;-0.222;2024-02-04T05:06:33;102317.00;;;11.58;83.05
75745;BME280;74462;51.366;-0.222;2024-02-04T05:07:37;102318.30;;;11.60;83.16
75745;BME280;74462;51.366;-0.222;2024-02-04T05:08:42;102319.30;;;11.58;83.16
75745;BME280;74462;51.366;-0.222;2024-02-04T05:09:46;102317.38;;;11.61;83.05
75745;BME280;74462;51.366;-0.222;2024-02-04T05:10:51;102314.79;;;11.62;83.06
75745;BME280;74462;51.366;-0.222;2024-02-04T05:11:55;102312.83;;;11.62;82.83
75745;BME280;74462;51.366;-0.222;2024-02-04T05:13:00;102315.75;;;11.64;82.83
75745;BME280;74462;51.366;-0.222;2024-02-04T05:14:04;102316.96;;;11.62;82.73
75745;BME280;74462;51.366;-0.222;2024-02-04T05:15:10;102313.73;;;11.62;82.97
75745;BME280;74462;51.366;-0.222;2024-02-04T05:16:15;102317.74;;;11.63;82.87
75745;BME280;74462;51.366;-0.222;2024-02-04T05:17:19;102318.52;;;11.62;82.87
75745;BME280;74462;51.366;-0.222;2024-02-04T05:18:24;102318.73;;;11.62;82.96
75745;BME280;74462;51.366;-0.222;2024-02-04T05:19:30;102319.90;;;11.60;82.97
75745;BME280;74462;51.366;-0.222;2024-02-04T05:20:34;102322.30;;;11.62;83.06
75745;BME280;74462;51.366;-0.222;2024-02-04T05:21:40;102322.27;;;11.62;82.97
75745;BME280;74462;51.366;-0.222;2024-02-04T05:22:45;102322.20;;;11.63;82.76
75745;BME280;74462;51.366;-0.222;2024-02-04T05:23:49;102319.76;;;11.65;82.90
75745;BME280;74462;51.366;-0.222;2024-02-04T05:24:54;102323.95;;;11.61;83.01
75745;BME280;74462;51.366;-0.222;2024-02-04T05:25:58;102321.63;;;11.64;82.97
75745;BME280;74462;51.366;-0.222;2024-02-04T05:27:06;102320.33;;;11.65;82.82
75745;BME280;74462;51.366;-0.222;2024-02-04T05:28:11;102321.30;;;11.60;83.10
75745;BME280;74462;51.366;-0.222;2024-02-04T05:29:15;102317.51;;;11.58;83.47
75745;BME280;74462;51.366;-0.222;2024-02-04T05:30:20;102311.10;;;11.58;83.16
75745;BME280;74462;51.366;-0.222;2024-02-04T05:31:25;102305.10;;;11.61;83.32
75745;BME280;74462;51.366;-0.222;2024-02-04T05:32:29;102308.80;;;11.61;83.29
75745;BME280;74462;51.366;-0.222;2024-02-04T05:33:34;102314.33;;;11.61;83.17
75745;BME280;74462;51.366;-0.222;2024-02-04T05:34:39;102315.77;;;11.57;83.35
75745;BME280;74462;51.366;-0.222;2024-02-04T05:35:44;102316.35;;;11.60;83.35
75745;BME280;74462;51.366;-0.222;2024-02-04T05:36:48;102317.24;;;11.60;83.36